createdAt,value
2022-11-06T00:00:21.834Z,73.70
2022-11-06T00:05:42.170Z,72.02
2022-11-06T00:10:44.354Z,72.82
2022-11-06T00:15:46.247Z,71.71
2022-11-06T00:20:48.157Z,74.64
2022-11-06T00:25:53.339Z,71.51
2022-11-06T00:31:05.152Z,71.96
2022-11-06T00:36:09.735Z,72.06
2022-11-06T00:41:14.114Z,73.32
2022-11-06T00:46:16.567Z,72.21
2022-11-06T00:51:21.836Z,72.07
2022-11-06T00:56:24.509Z,71.07
2022-11-06T01:01:29.364Z,77.84
2022-11-06T01:06:33.734Z,78.51
2022-11-06T01:12:11.704Z,79.10
2022-11-06T01:17:06.660Z,79.16
2022-11-06T01:22:09.035Z,79.40
2022-11-06T01:27:27.386Z,77.00
2022-11-06T01:32:29.690Z,75.76
2022-11-06T01:37:31.670Z,73.10
2022-11-06T01:42:33.598Z,75.47
2022-11-06T01:47:35.620Z,74.76
2022-11-06T01:52:38.399Z,73.88
2022-11-06T01:57:47.842Z,74.34
2022-11-06T02:03:04.127Z,73.30
2022-11-06T02:08:07.987Z,71.96
2022-11-06T02:13:28.775Z,70.88
2022-11-06T02:18:50.677Z,70.58
2022-11-06T02:24:24.920Z,70.38
2022-11-06T02:29:38.517Z,72.80
2022-11-06T02:34:43.394Z,70.59
2022-11-06T02:39:47.106Z,72.65
2022-11-06T02:44:50.404Z,71.51
2022-11-06T02:50:00.217Z,69.64
2022-11-06T02:55:29.091Z,72.41
2022-11-06T03:00:33.740Z,71.19
2022-11-06T03:05:54.804Z,70.56
2022-11-06T03:11:20.906Z,69.99
2022-11-06T03:16:40.839Z,72.45
2022-11-06T03:22:09.535Z,71.03
2022-11-06T03:27:22.197Z,70.52
2022-11-06T03:32:48.974Z,69.56
2022-11-06T03:38:08.221Z,68.26
2022-11-06T03:43:14.490Z,71.13
2022-11-06T03:48:32.430Z,68.86
2022-11-06T03:53:37.930Z,71.00
2022-11-06T03:58:45.109Z,71.48
2022-11-06T04:04:01.964Z,71.48
2022-11-06T04:09:25.599Z,70.19
2022-11-06T04:14:31.029Z,71.57
2022-11-06T04:19:33.077Z,71.91
2022-11-06T04:24:59.992Z,70.10
2022-11-06T04:30:13.950Z,69.39
2022-11-06T04:35:39.996Z,73.22
2022-11-06T04:41:03.667Z,71.45
2022-11-06T04:46:08.315Z,70.87
2022-11-06T04:51:11.982Z,73.12
2022-11-06T04:56:25.540Z,71.62
2022-11-06T05:01:27.824Z,69.64
2022-11-06T05:06:30.411Z,69.39
2022-11-06T05:11:32.594Z,67.48
2022-11-06T05:16:34.916Z,69.32
2022-11-06T05:21:55.250Z,68.39
2022-11-06T05:26:59.575Z,68.78
2022-11-06T05:32:01.944Z,67.27
2022-11-06T05:37:03.975Z,67.08
2022-11-06T05:42:05.874Z,66.81
2022-11-06T05:47:07.912Z,65.52
2022-11-06T05:52:10.120Z,64.47
2022-11-06T05:57:12.319Z,64.99
2022-11-06T06:02:14.371Z,64.41
2022-11-06T06:07:16.339Z,66.36
2022-11-06T06:12:18.583Z,63.59
2022-11-06T06:17:21.072Z,62.39
2022-11-06T06:22:22.951Z,67.24
2022-11-06T06:27:27.544Z,70.16
2022-11-06T06:32:29.472Z,72.20
2022-11-06T06:37:31.405Z,72.92
2022-11-06T06:42:33.349Z,67.66
2022-11-06T06:47:35.261Z,62.86
2022-11-06T06:52:37.198Z,63.53
2022-11-06T06:57:39.145Z,67.77
2022-11-06T07:02:41.023Z,67.40
2022-11-06T07:07:43.197Z,65.05
2022-11-06T07:12:51.683Z,65.08
2022-11-06T07:18:07.845Z,62.21
2022-11-06T07:23:10.002Z,59.63
2022-11-06T07:28:11.913Z,59.43
2022-11-06T07:33:14.028Z,58.58
2022-11-06T07:38:16.254Z,57.39
2022-11-06T07:43:18.426Z,55.28
2022-11-06T07:48:20.543Z,56.26
2022-11-06T07:53:23.128Z,55.96
2022-11-06T07:58:26.094Z,56.08
2022-11-06T08:03:31.292Z,54.20
2022-11-06T08:08:33.402Z,52.93
2022-11-06T08:13:35.886Z,50.92
2022-11-06T08:18:38.596Z,47.26
2022-11-06T08:23:40.690Z,48.34
2022-11-06T08:28:42.774Z,46.06
2022-11-06T08:33:44.690Z,45.90
2022-11-06T08:38:49.740Z,46.49
2022-11-06T08:43:52.550Z,47.44
2022-11-06T08:48:54.521Z,44.68
2022-11-06T08:53:58.054Z,43.57
2022-11-06T08:59:00.209Z,44.30
2022-11-06T09:04:02.233Z,41.50
2022-11-06T09:09:04.262Z,42.58
2022-11-06T09:14:12.645Z,43.90
2022-11-06T09:19:14.647Z,40.45
2022-11-06T09:24:16.792Z,38.30
2022-11-06T09:29:18.743Z,36.72
2022-11-06T09:34:20.684Z,35.14
2022-11-06T09:39:22.598Z,36.98
2022-11-06T09:44:49.647Z,37.27
2022-11-06T09:49:56.568Z,37.31
2022-11-06T09:55:10.348Z,34.96
2022-11-06T10:00:15.556Z,34.76
2022-11-06T10:05:30.749Z,30.80
2022-11-06T10:10:38.601Z,32.43
2022-11-06T10:15:50.759Z,36.99
2022-11-06T10:20:54.648Z,36.76
2022-11-06T10:26:17.117Z,37.78
2022-11-06T10:31:45.138Z,36.48
2022-11-06T10:36:59.480Z,35.08
2022-11-06T10:42:16.279Z,36.47
2022-11-06T10:47:30.071Z,38.20
2022-11-06T10:52:50.636Z,43.01
2022-11-06T10:57:56.952Z,41.93
2022-11-06T11:03:01.995Z,41.59
2022-11-06T11:08:04.125Z,46.82
2022-11-06T11:13:08.665Z,45.06
2022-11-06T11:18:18.660Z,44.07
2022-11-06T11:23:25.018Z,42.82
2022-11-06T11:28:34.449Z,42.89
2022-11-06T11:33:38.542Z,44.35
2022-11-06T11:38:42.002Z,45.52
2022-11-06T11:43:44.019Z,45.87
2022-11-06T11:48:55.889Z,43.32
2022-11-06T11:54:11.352Z,41.15
2022-11-06T11:59:27.794Z,40.21
2022-11-06T12:04:32.313Z,39.55
2022-11-06T12:09:42.892Z,39.62
2022-11-06T12:14:44.781Z,39.04
2022-11-06T12:19:53.388Z,48.06
2022-11-06T12:25:10.047Z,51.80
2022-11-06T12:30:16.378Z,51.48
2022-11-06T12:35:30.987Z,53.28
2022-11-06T12:40:39.690Z,53.18
2022-11-06T12:45:54.996Z,54.47
2022-11-06T12:51:25.606Z,55.69
2022-11-06T12:56:48.942Z,58.64
2022-11-06T13:02:03.000Z,58.93
2022-11-06T13:07:46.920Z,59.35
2022-11-06T13:13:19.277Z,61.59
2022-11-06T13:18:30.284Z,61.38
2022-11-06T13:23:51.126Z,60.35
2022-11-06T13:28:57.112Z,61.38
2022-11-06T13:34:02.948Z,62.60
2022-11-06T13:39:35.858Z,60.85
2022-11-06T13:44:37.975Z,56.58
2022-11-06T13:50:00.913Z,60.39
2022-11-06T13:55:24.155Z,63.16
2022-11-06T14:00:44.320Z,64.56
2022-11-06T14:05:53.295Z,66.02
2022-11-06T14:11:11.776Z,55.85
2022-11-06T14:16:14.135Z,64.26
2022-11-06T14:21:38.104Z,66.32
2022-11-06T14:26:44.138Z,66.27
2022-11-06T14:32:10.268Z,67.43
2022-11-06T14:37:18.354Z,67.78
2022-11-06T14:42:29.719Z,67.72
2022-11-06T14:47:36.243Z,70.00
2022-11-06T14:52:48.394Z,70.46
2022-11-06T14:57:53.289Z,71.28
2022-11-06T15:02:55.251Z,71.23
2022-11-06T15:08:04.902Z,71.43
2022-11-06T15:13:17.931Z,72.06
2022-11-06T15:18:23.025Z,72.48
2022-11-06T15:24:10.237Z,73.31
2022-11-06T15:29:26.475Z,73.36
2022-11-06T15:34:36.561Z,74.36
2022-11-06T15:40:00.273Z,75.46
2022-11-06T15:45:06.729Z,75.69
2022-11-06T15:50:19.963Z,76.34
2022-11-06T15:55:36.275Z,76.24
2022-11-06T16:00:42.293Z,76.02
2022-11-06T16:05:45.870Z,77.15
2022-11-06T16:10:50.870Z,77.20
2022-11-06T16:16:01.248Z,76.83
2022-11-06T16:21:13.407Z,77.35
2022-11-06T16:26:38.250Z,77.35
2022-11-06T16:31:40.204Z,78.21
2022-11-06T16:37:03.590Z,78.27
2022-11-06T16:42:16.755Z,78.91
2022-11-06T16:47:22.928Z,77.97
2022-11-06T16:52:33.615Z,76.92
2022-11-06T16:57:43.212Z,76.97
2022-11-06T17:02:55.645Z,77.40
2022-11-06T17:08:16.362Z,78.14
2022-11-06T17:13:22.036Z,79.70
2022-11-06T17:18:38.039Z,79.43
2022-11-06T17:23:41.063Z,79.53
2022-11-06T17:28:42.935Z,79.58
2022-11-06T17:33:51.242Z,79.49
2022-11-06T17:38:57.612Z,78.95
2022-11-06T17:44:04.281Z,78.93
2022-11-06T17:49:06.995Z,77.62
2022-11-06T17:54:09.873Z,78.31
2022-11-06T17:59:13.310Z,77.24
2022-11-06T18:04:15.233Z,77.36
2022-11-06T18:09:17.088Z,77.21
2022-11-06T18:14:20.600Z,77.97
2022-11-06T18:19:24.277Z,78.75
2022-11-06T18:24:26.363Z,80.33
2022-11-06T18:29:28.248Z,80.10
2022-11-06T18:34:30.171Z,79.99
2022-11-06T18:39:32.412Z,78.27
2022-11-06T18:44:41.619Z,80.83
2022-11-06T18:49:43.496Z,81.02
2022-11-06T18:54:45.447Z,81.01
2022-11-06T18:59:47.306Z,80.93
2022-11-06T19:04:49.209Z,80.97
2022-11-06T19:09:51.152Z,80.33
2022-11-06T19:14:53.100Z,80.43
2022-11-06T19:19:55.010Z,79.47
2022-11-06T19:24:56.985Z,79.53
2022-11-06T19:30:00.469Z,79.59
2022-11-06T19:35:02.570Z,79.83
2022-11-06T19:40:06.353Z,79.55
2022-11-06T19:45:09.167Z,80.08
2022-11-06T19:50:11.124Z,79.69
2022-11-06T19:55:25.688Z,79.67
2022-11-06T20:00:29.046Z,79.95
2022-11-06T20:05:31.221Z,80.16
2022-11-06T20:10:35.135Z,80.82
2022-11-06T20:15:37.120Z,80.59
2022-11-06T20:20:38.966Z,80.32
2022-11-06T20:25:40.938Z,80.07
2022-11-06T20:30:42.811Z,79.91
2022-11-06T20:35:45.142Z,79.36
2022-11-06T20:40:46.988Z,80.02
2022-11-06T20:45:49.369Z,79.88
2022-11-06T20:51:06.391Z,79.62
2022-11-06T20:56:12.450Z,79.60
2022-11-06T21:01:18.152Z,79.36
2022-11-06T21:06:21.696Z,79.01
2022-11-06T21:11:25.081Z,78.31
2022-11-06T21:16:32.836Z,77.90
2022-11-06T21:21:37.480Z,77.56
2022-11-06T21:26:40.097Z,77.61
2022-11-06T21:31:48.599Z,77.89
2022-11-06T21:36:51.453Z,78.09
2022-11-06T21:41:53.367Z,78.00
2022-11-06T21:46:55.560Z,77.15
2022-11-06T21:52:17.351Z,77.85
2022-11-06T21:57:19.240Z,77.80
2022-11-06T22:02:21.324Z,78.45
2022-11-06T22:07:23.275Z,78.63
2022-11-06T22:12:25.183Z,79.90
2022-11-06T22:17:27.264Z,80.00
2022-11-06T22:22:29.613Z,79.88
2022-11-06T22:27:31.634Z,80.42
2022-11-06T22:32:33.468Z,80.64
2022-11-06T22:37:35.419Z,81.07
2022-11-06T22:42:37.251Z,80.55
2022-11-06T22:47:39.992Z,80.45
2022-11-06T22:52:41.916Z,79.63
2022-11-06T22:57:43.750Z,79.98
2022-11-06T23:02:45.695Z,78.77
2022-11-06T23:07:47.660Z,78.27
2022-11-06T23:12:49.575Z,78.04
2022-11-06T23:17:52.623Z,77.66
2022-11-06T23:22:54.707Z,77.44
2022-11-06T23:27:58.330Z,77.85
2022-11-06T23:33:00.196Z,77.44
2022-11-06T23:38:02.410Z,76.08
2022-11-06T23:43:04.282Z,75.57
2022-11-06T23:48:12.741Z,75.06
2022-11-06T23:53:16.477Z,75.06
2022-11-06T23:58:18.755Z,75.23
